Terminal Aerodrome Forecast
Issued by NWS Cleveland, OH

Home | Current Version | Previous Version | Graphics & Text | Print | Product List | Glossary On
Versions: 1 2 3 4 5 6 7 8 9 10 11 12 13 14 15 16 17 18 19
000
FTUS41 KCLE 201700
TAFERI
TAF
KERI 201738Z 2018/2118 20015G25KT P6SM SCT035 BKN250
     FM210500 20012G22KT P6SM VCTS BKN045CB PROB30 2106/2110 3SM
      TSRA BR OVC035CB
     FM211100 23012KT P6SM VCSH SCT015 OVC030
     FM211700 26015G25KT P6SM VCSH SCT015 OVC030=

USA.gov is the U.S. government's official web portal to all federal, state and local government web resources and services.